Time;durP1;ratioP1;P1;durP2;ratioP2;P2;SDS_P1;SDS_P2;PMS_P1;PMS_P2;Temp;Humidity;BMP_temperature;BMP_pressure;BME280_temperature;BME280_humidity;BME280_pressure;Samples;Min_cycle;Max_cycle;Signal;HPM_P1;HPM_P2
2023/07/06 00:01:55;;;;;;;1.52;0.63;;;;;;;22.28;60.36;100419.09;10405505;28;96700;-91
2023/07/06 00:07:01;;;;;;;1.52;0.60;;;;;;;22.30;60.22;100427.84;10403462;28;96686;-94
2023/07/06 00:12:07;;;;;;;1.58;0.82;;;;;;;22.46;59.62;100429.09;10413942;28;96659;-94
2023/07/06 00:17:14;;;;;;;1.23;0.55;;;;;;;22.26;60.06;100426.41;10402395;28;98204;-92
2023/07/06 00:22:18;;;;;;;1.35;0.75;;;;;;;22.19;60.41;100428.78;10395447;28;97529;-93
2023/07/06 00:27:22;;;;;;;;;;;;;;;22.01;62.11;100426.78;10409402;28;96717;-93
2023/07/06 00:32:31;;;;;;;1.00;0.60;;;;;;;22.02;60.71;100432.00;10406584;28;96811;-93
2023/07/06 00:37:36;;;;;;;0.95;0.60;;;;;;;21.91;60.96;100431.19;10447555;28;96656;-93
2023/07/06 00:42:42;;;;;;;0.93;0.75;;;;;;;21.85;61.18;100419.13;10431925;27;96784;-92
2023/07/06 00:47:52;;;;;;;1.40;0.90;;;;;;;21.77;61.65;100424.28;10427873;28;96702;-93
2023/07/06 00:53:00;;;;;;;1.98;0.60;;;;;;;21.63;61.97;100421.03;10410479;28;97190;-92
2023/07/06 00:58:08;;;;;;;2.80;0.77;;;;;;;21.49;62.42;100416.81;10338534;28;96622;-92
2023/07/06 01:03:30;;;;;;;1.48;0.73;;;;;;;21.40;62.47;100406.84;10349455;28;96622;-91
2023/07/06 01:08:35;;;;;;;1.65;0.70;;;;;;;21.46;62.62;100409.91;10373822;28;97020;-92
2023/07/06 01:13:40;;;;;;;1.27;0.60;;;;;;;21.41;62.57;100405.91;10383150;28;97679;-90
2023/07/06 01:18:52;;;;;;;0.88;0.68;;;;;;;21.45;62.75;100394.81;10385613;28;96720;-91
2023/07/06 01:24:34;;;;;;;0.93;0.60;;;;;;;21.37;62.82;100401.75;10396746;28;97024;-92
2023/07/06 01:30:15;;;;;;;1.00;0.68;;;;;;;21.42;62.65;100399.56;10406581;28;96805;-92
2023/07/06 01:35:25;;;;;;;2.97;0.90;;;;;;;21.47;62.53;100390.16;10397072;28;96712;-91
2023/07/06 01:40:28;;;;;;;1.50;0.88;;;;;;;21.27;62.91;100384.75;10399911;28;97121;-91
2023/07/06 01:45:32;;;;;;;1.38;0.80;;;;;;;21.11;63.16;100386.94;10434592;28;97184;-91
2023/07/06 01:50:44;;;;;;;1.73;0.80;;;;;;;21.10;63.01;100378.03;10421622;27;97062;-91
2023/07/06 01:55:55;;;;;;;1.23;0.70;;;;;;;20.84;63.70;100383.81;10423001;27;96626;-92
2023/07/06 02:01:04;;;;;;;0.80;0.60;;;;;;;20.87;63.58;100371.03;10430985;28;96685;-92
2023/07/06 02:06:10;;;;;;;1.17;0.68;;;;;;;20.90;63.67;100377.94;10445102;27;96959;-92
2023/07/06 02:11:15;;;;;;;1.48;0.85;;;;;;;20.92;63.50;100370.66;10433654;28;96736;-91
2023/07/06 02:16:18;;;;;;;1.05;0.77;;;;;;;20.97;63.54;100368.44;10433479;27;97047;-91
2023/07/06 02:21:23;;;;;;;1.20;0.80;;;;;;;20.98;63.44;100367.50;10427030;28;96842;-91
2023/07/06 02:26:27;;;;;;;1.88;0.70;;;;;;;21.05;63.20;100358.84;10436699;28;96694;-91
2023/07/06 02:31:30;;;;;;;1.70;1.00;;;;;;;20.82;63.98;100364.34;10440487;28;96701;-92
2023/07/06 02:36:37;;;;;;;1.52;0.93;;;;;;;20.66;64.83;100353.16;10423537;28;97240;-92
2023/07/06 02:41:43;;;;;;;1.15;0.70;;;;;;;20.85;64.14;100348.03;10424349;28;96873;-92
2023/07/06 02:46:48;;;;;;;1.00;0.77;;;;;;;20.59;64.61;100351.94;10431454;28;96665;-92
2023/07/06 02:51:55;;;;;;;1.42;0.88;;;;;;;20.72;64.32;100342.00;10391413;27;97414;-92
2023/07/06 02:57:00;;;;;;;1.42;0.90;;;;;;;20.74;64.25;100342.72;10355617;22;97577;-92
2023/07/06 03:02:04;;;;;;;2.08;0.80;;;;;;;20.43;64.61;100338.09;10351057;28;96733;-92
2023/07/06 03:07:09;;;;;;;1.40;0.75;;;;;;;20.16;65.81;100336.59;10379837;28;96969;-92
2023/07/06 03:12:14;;;;;;;2.25;1.23;;;;;;;20.06;65.67;100330.25;10385409;28;97494;-91
2023/07/06 03:17:17;;;;;;;1.02;0.80;;;;;;;19.99;66.02;100323.69;10355005;28;98097;-91
2023/07/06 03:22:22;;;;;;;0.98;0.75;;;;;;;19.83;66.50;100323.16;10352672;28;96999;-91
2023/07/06 03:27:25;;;;;;;1.83;0.82;;;;;;;19.96;65.96;100310.53;10389367;28;97253;-93
2023/07/06 03:32:29;;;;;;;3.17;0.90;;;;;;;20.42;64.77;100309.66;10399275;28;96584;-92
2023/07/06 03:37:34;;;;;;;1.20;0.70;;;;;;;20.71;63.84;100301.00;10411601;28;96783;-93
2023/07/06 03:42:38;;;;;;;1.73;0.90;;;;;;;20.70;63.95;100298.47;10410013;28;96738;-92
2023/07/06 03:47:45;;;;;;;1.30;0.80;;;;;;;20.43;64.60;100304.19;10402640;28;96747;-93
2023/07/06 03:52:52;;;;;;;1.00;0.70;;;;;;;20.29;64.74;100307.91;10377509;28;96823;-93
2023/07/06 03:58:00;;;;;;;1.05;0.80;;;;;;;20.19;65.14;100292.72;10369288;28;97541;-92
2023/07/06 04:03:08;;;;;;;2.05;0.90;;;;;;;20.09;65.17;100302.44;10387191;28;96686;-92
2023/07/06 04:08:18;;;;;;;1.35;1.00;;;;;;;19.98;65.48;100305.94;10379515;28;96835;-91
2023/07/06 04:13:22;;;;;;;1.30;0.80;;;;;;;19.73;66.36;100308.81;10382952;28;96765;-91
2023/07/06 04:18:27;;;;;;;2.30;0.90;;;;;;;19.77;66.39;100302.25;10378706;28;96632;-90
2023/07/06 04:23:35;;;;;;;1.65;0.90;;;;;;;19.84;66.14;100295.47;10378108;28;96824;-91
2023/07/06 04:28:40;;;;;;;1.50;1.00;;;;;;;19.80;66.13;100299.34;10376468;28;96638;-92
2023/07/06 04:33:46;;;;;;;1.38;0.95;;;;;;;19.75;66.25;100293.47;10375119;28;97254;-92
2023/07/06 04:38:53;;;;;;;2.15;1.00;;;;;;;19.82;66.28;100300.06;10381697;28;96582;-92
2023/07/06 04:43:58;;;;;;;1.77;1.00;;;;;;;19.79;66.03;100302.97;10381214;28;97026;-92
2023/07/06 04:49:20;;;;;;;2.58;0.80;;;;;;;19.48;66.77;100311.59;10379291;28;97748;-91
2023/07/06 04:54:28;;;;;;;1.52;0.90;;;;;;;19.93;66.11;100304.56;10340631;28;96744;-92
2023/07/06 04:59:34;;;;;;;1.60;0.90;;;;;;;19.87;65.87;100313.94;10339192;28;96643;-91
2023/07/06 05:04:40;;;;;;;2.50;0.93;;;;;;;19.69;66.28;100319.81;10337729;28;98078;-91
2023/07/06 05:09:50;;;;;;;1.75;0.98;;;;;;;19.47;67.10;100317.94;10335772;28;96821;-90
2023/07/06 05:14:54;;;;;;;1.75;1.10;;;;;;;19.63;66.79;100321.13;10336517;28;97969;-90
2023/07/06 05:19:59;;;;;;;1.52;1.10;;;;;;;19.63;66.69;100328.31;10336240;28;96661;-92
2023/07/06 05:25:05;;;;;;;1.80;1.10;;;;;;;19.64;66.69;100332.66;10337284;28;96669;-90
2023/07/06 05:30:10;;;;;;;1.75;1.00;;;;;;;19.60;67.20;100339.19;10336021;28;96723;-91
2023/07/06 05:35:15;;;;;;;2.70;1.25;;;;;;;19.73;66.92;100337.31;10335792;28;97334;-89
2023/07/06 05:40:23;;;;;;;1.38;0.95;;;;;;;19.86;66.49;100335.41;10335125;28;97755;-91
2023/07/06 05:45:28;;;;;;;1.60;1.10;;;;;;;20.00;66.51;100325.38;10335546;28;96795;-91
2023/07/06 05:50:32;;;;;;;1.38;1.08;;;;;;;20.15;66.04;100334.84;10334747;28;97128;-90
2023/07/06 05:55:43;;;;;;;1.75;1.10;;;;;;;19.99;66.69;100337.03;10342119;28;96820;-90
2023/07/06 06:00:48;;;;;;;2.92;1.48;;;;;;;19.81;67.10;100348.25;10375124;28;97192;-90
2023/07/06 06:05:53;;;;;;;3.90;1.50;;;;;;;19.92;66.66;100341.16;10375757;28;96692;-91
2023/07/06 06:11:19;;;;;;;2.60;1.40;;;;;;;20.17;66.57;100340.94;10369817;28;97574;-90
2023/07/06 06:16:23;;;;;;;4.22;2.38;;;;;;;20.11;66.77;100333.41;10375599;28;97346;-90
2023/07/06 06:21:29;;;;;;;3.50;2.30;;;;;;;20.34;66.34;100343.19;10378582;28;96728;-91
2023/07/06 06:26:53;;;;;;;5.93;2.72;;;;;;;20.28;66.66;100340.97;10377064;28;96711;-91
2023/07/06 06:32:15;;;;;;;5.22;2.42;;;;;;;20.16;66.87;100347.28;10380964;28;96614;-93
2023/07/06 06:37:20;;;;;;;4.60;2.72;;;;;;;20.03;67.61;100343.00;10384948;28;97458;-91
2023/07/06 06:42:44;;;;;;;3.92;2.53;;;;;;;19.89;68.26;100335.19;10380396;28;96807;-90
2023/07/06 06:47:48;;;;;;;4.63;2.88;;;;;;;19.94;68.27;100341.03;10378533;28;96663;-90
2023/07/06 06:52:53;;;;;;;4.47;2.80;;;;;;;19.79;69.12;100343.03;10345292;28;97603;-91
2023/07/06 06:58:03;;;;;;;4.57;2.85;;;;;;;19.98;68.32;100342.47;10333899;28;97493;-91
2023/07/06 07:03:10;;;;;;;5.35;2.85;;;;;;;19.97;68.37;100344.31;10342483;28;97032;-91
2023/07/06 07:08:14;;;;;;;6.22;3.10;;;;;;;20.08;68.18;100335.47;10375968;28;96625;-90
2023/07/06 07:13:21;;;;;;;4.65;2.63;;;;;;;20.46;67.15;100338.72;10385026;28;97546;-91
2023/07/06 07:18:25;;;;;;;5.47;3.38;;;;;;;20.25;67.43;100332.34;10384135;28;96643;-91
2023/07/06 07:23:40;;;;;;;3.97;2.58;;;;;;;20.36;68.00;100335.91;10383539;28;96743;-90
2023/07/06 07:28:50;;;;;;;4.07;2.72;;;;;;;20.27;68.26;100336.56;10383480;28;96704;-91
2023/07/06 07:33:55;;;;;;;5.40;3.15;;;;;;;20.46;67.85;100335.19;10376862;28;96661;-93
2023/07/06 07:38:59;;;;;;;5.32;3.05;;;;;;;20.67;67.41;100338.84;10360015;28;96748;-90
2023/07/06 07:44:06;;;;;;;5.10;3.25;;;;;;;20.48;67.53;100342.09;10331691;28;96609;-90
2023/07/06 07:49:11;;;;;;;4.60;3.38;;;;;;;20.89;66.57;100341.47;10336822;28;99292;-91
2023/07/06 07:54:33;;;;;;;3.83;2.58;;;;;;;21.18;65.88;100327.47;10342389;28;97580;-90
2023/07/06 07:59:40;;;;;;;6.00;3.72;;;;;;;21.49;65.24;100328.44;10339587;28;97098;-90
2023/07/06 08:04:44;;;;;;;5.30;3.25;;;;;;;21.66;65.10;100329.75;10351665;28;96592;-94
2023/07/06 08:09:48;;;;;;;;;;;;;;;22.16;63.54;100326.31;10356098;28;96995;-93
2023/07/06 08:14:56;;;;;;;4.32;3.00;;;;;;;22.07;63.76;100322.56;10342392;28;97379;-90
2023/07/06 08:25:48;;;;;;;4.20;2.78;;;;;;;22.30;63.31;100313.41;10368206;28;96622;-94
2023/07/06 08:31:01;;;;;;;4.78;2.47;;;;;;;22.46;62.72;100315.59;10379666;28;96551;-95
2023/07/06 08:36:15;;;;;;;3.60;2.40;;;;;;;22.63;62.18;100309.59;10371043;28;96618;-94
2023/07/06 08:41:30;;;;;;;4.18;2.40;;;;;;;22.74;62.39;100306.81;10372430;28;96708;-93
2023/07/06 08:46:40;;;;;;;4.18;2.60;;;;;;;23.22;60.96;100301.56;10371658;28;96506;-96
2023/07/06 08:51:46;;;;;;;2.97;1.90;;;;;;;22.91;61.65;100306.19;10345554;28;96609;-95
2023/07/06 08:56:53;;;;;;;3.60;2.13;;;;;;;23.17;61.07;100306.53;10367991;28;96585;-95
2023/07/06 09:02:19;;;;;;;2.90;2.03;;;;;;;23.44;59.89;100295.97;10368101;28;96697;-96
2023/07/06 09:07:34;;;;;;;2.80;1.95;;;;;;;23.92;59.09;100286.06;10366072;28;96541;-95
2023/07/06 09:12:41;;;;;;;3.37;1.83;;;;;;;23.64;60.40;100277.03;10361419;28;96655;-96
2023/07/06 09:18:15;;;;;;;2.63;1.80;;;;;;;23.90;59.22;100265.69;10364727;28;96755;-96
2023/07/06 09:23:21;;;;;;;3.10;2.20;;;;;;;24.11;59.49;100271.72;10403119;28;96719;-94
2023/07/06 09:28:31;;;;;;;3.10;1.65;;;;;;;24.23;59.34;100262.47;10402654;28;96554;-95
2023/07/06 09:33:44;;;;;;;3.55;1.63;;;;;;;24.78;59.39;100254.31;10396319;28;96550;-95
2023/07/06 09:38:48;;;;;;;3.22;1.95;;;;;;;25.04;57.86;100248.22;10387936;28;96962;-93
2023/07/06 09:43:59;;;;;;;2.38;1.38;;;;;;;24.98;57.88;100246.97;10391424;28;97515;-95
2023/07/06 09:49:14;;;;;;;1.75;1.35;;;;;;;25.06;57.10;100244.38;10387105;28;96907;-94
2023/07/06 09:54:21;;;;;;;;;;;;;;;25.31;57.47;100240.91;10371365;28;96891;-95
2023/07/06 09:59:46;;;;;;;2.53;1.30;;;;;;;25.55;56.97;100238.44;10306384;28;97237;-93
2023/07/06 10:05:03;;;;;;;3.45;1.63;;;;;;;25.56;56.24;100229.34;10304939;28;96784;-95
2023/07/06 10:10:16;;;;;;;2.88;1.55;;;;;;;25.95;55.98;100229.84;10308263;28;96672;-91
2023/07/06 10:15:28;;;;;;;3.47;1.80;;;;;;;26.13;55.36;100230.63;10347512;28;97237;-95
2023/07/06 10:20:40;;;;;;;2.38;1.42;;;;;;;26.17;55.37;100233.84;10345503;28;96670;-90
2023/07/06 10:25:54;;;;;;;2.10;1.25;;;;;;;26.28;54.51;100228.19;10342885;28;97763;-93
2023/07/06 10:31:03;;;;;;;2.47;1.60;;;;;;;26.41;54.44;100232.16;10341476;28;96874;-88
2023/07/06 10:36:12;;;;;;;1.70;1.50;;;;;;;26.62;53.93;100224.47;10343700;28;96639;-94
2023/07/06 10:41:29;;;;;;;2.42;1.40;;;;;;;26.68;53.97;100233.78;10343447;28;97200;-94
2023/07/06 10:46:36;;;;;;;2.60;1.50;;;;;;;26.87;53.91;100218.13;10367807;28;96709;-88
2023/07/06 10:51:50;;;;;;;2.78;1.55;;;;;;;26.97;53.15;100215.28;10362493;28;96659;-92
2023/07/06 10:57:02;;;;;;;2.22;1.40;;;;;;;27.11;52.42;100220.09;10341545;28;96939;-91
2023/07/06 11:02:21;;;;;;;2.60;1.63;;;;;;;27.10;52.80;100231.88;10344437;28;96717;-92
2023/07/06 11:07:46;;;;;;;2.35;1.45;;;;;;;27.36;51.81;100224.47;10342133;28;96862;-94
2023/07/06 11:12:58;;;;;;;3.50;1.65;;;;;;;27.48;51.38;100211.47;10341863;28;96795;-92
2023/07/06 11:18:16;;;;;;;2.30;1.53;;;;;;;27.75;51.63;100216.56;10344112;28;96750;-93
2023/07/06 11:23:37;;;;;;;2.40;1.63;;;;;;;27.88;51.35;100214.16;10380556;28;98041;-92
2023/07/06 11:28:41;;;;;;;2.55;1.60;;;;;;;27.99;51.38;100208.41;10383850;28;96719;-93
2023/07/06 11:34:18;;;;;;;2.28;1.83;;;;;;;28.20;50.05;100203.28;10382412;28;96761;-96
2023/07/06 11:39:30;;;;;;;3.35;1.80;;;;;;;28.29;50.15;100194.13;10382314;28;96689;-93
2023/07/06 11:44:47;;;;;;;3.30;1.87;;;;;;;28.41;49.24;100194.59;10377968;28;96899;-91
2023/07/06 11:49:53;;;;;;;2.33;1.70;;;;;;;28.36;49.22;100189.69;10375455;28;96671;-92
2023/07/06 11:55:14;;;;;;;2.90;1.52;;;;;;;28.67;48.52;100193.28;10366435;28;96784;-90
2023/07/06 12:00:52;;;;;;;2.47;1.80;;;;;;;28.63;47.79;100186.53;10373725;28;96724;-92
2023/07/06 12:06:01;;;;;;;2.17;1.42;;;;;;;28.83;47.80;100181.50;10380504;28;96724;-91
2023/07/06 12:11:15;;;;;;;1.85;1.42;;;;;;;29.01;46.81;100179.38;10359534;28;96662;-94
2023/07/06 12:16:21;;;;;;;2.95;1.63;;;;;;;28.99;47.03;100182.28;10340619;28;97927;-90
2023/07/06 12:21:30;;;;;;;3.08;1.67;;;;;;;29.18;45.79;100178.25;10340262;28;96638;-89
2023/07/06 12:26:43;;;;;;;2.95;1.42;;;;;;;29.46;44.47;100179.38;10346540;28;97581;-92
2023/07/06 12:32:08;;;;;;;2.08;1.65;;;;;;;29.38;45.24;100170.47;10371457;28;97666;-93
2023/07/06 12:37:14;;;;;;;2.10;1.50;;;;;;;29.45;44.01;100166.00;10379341;28;96825;-89
2023/07/06 12:42:21;;;;;;;1.80;1.10;;;;;;;29.52;44.10;100170.50;10383182;28;96619;-90
2023/07/06 12:47:36;;;;;;;1.67;1.20;;;;;;;29.60;42.75;100169.59;10380099;28;96714;-89
2023/07/06 12:52:42;;;;;;;1.92;1.38;;;;;;;29.79;43.00;100163.66;10350165;28;96780;-91
2023/07/06 12:57:49;;;;;;;2.25;1.40;;;;;;;29.88;42.20;100170.69;10301268;28;96870;-94
2023/07/06 13:02:56;;;;;;;2.97;1.60;;;;;;;30.12;41.74;100156.88;10325952;28;96619;-93
2023/07/06 13:08:20;;;;;;;2.53;1.50;;;;;;;29.82;41.39;100152.41;10343266;28;96743;-89
2023/07/06 13:13:27;;;;;;;2.50;1.70;;;;;;;29.95;41.10;100145.31;10342869;28;96772;-94
2023/07/06 13:18:33;;;;;;;2.55;1.73;;;;;;;29.98;41.20;100142.25;10329585;28;96758;-92
2023/07/06 13:23:58;;;;;;;3.63;2.40;;;;;;;30.18;41.68;100137.09;10297648;28;97174;-91
2023/07/06 13:29:11;;;;;;;2.92;2.03;;;;;;;30.46;41.44;100131.81;10299780;28;96723;-94
2023/07/06 13:34:16;;;;;;;3.35;2.17;;;;;;;30.65;41.13;100132.03;10300140;28;97099;-91
2023/07/06 13:39:21;;;;;;;3.22;2.60;;;;;;;29.78;43.17;100130.25;10298257;28;96702;-92
2023/07/06 13:44:27;;;;;;;4.40;3.00;;;;;;;30.08;43.60;100120.22;10303121;28;96980;-93
2023/07/06 13:49:32;;;;;;;5.07;3.28;;;;;;;29.84;44.40;100128.66;10299800;28;96703;-93
2023/07/06 13:54:40;;;;;;;5.65;3.40;;;;;;;30.30;43.93;100132.88;10316605;28;96827;-94
2023/07/06 13:59:47;;;;;;;5.28;3.35;;;;;;;30.14;44.33;100133.91;10341107;28;96730;-93
2023/07/06 14:04:52;;;;;;;5.95;3.38;;;;;;;29.99;43.81;100135.78;10340086;28;96643;-92
2023/07/06 14:09:58;;;;;;;6.40;3.35;;;;;;;30.17;43.71;100127.28;10360257;28;96728;-91
2023/07/06 14:15:10;;;;;;;7.05;4.13;;;;;;;30.16;43.23;100134.56;10383042;28;97681;-91
2023/07/06 14:20:22;;;;;;;4.53;3.42;;;;;;;30.04;42.85;100125.19;10382521;28;96570;-92
2023/07/06 14:25:29;;;;;;;4.60;3.33;;;;;;;29.94;43.96;100131.94;10376449;28;96855;-92
2023/07/06 14:31:02;;;;;;;4.68;3.20;;;;;;;30.29;43.41;100125.75;10342295;28;96716;-87
2023/07/06 14:36:07;;;;;;;4.63;3.40;;;;;;;29.81;43.38;100118.19;10341291;28;96755;-92
2023/07/06 14:41:29;;;;;;;3.88;2.78;;;;;;;30.14;43.26;100114.91;10334092;28;96735;-90
2023/07/06 14:46:34;;;;;;;3.20;2.70;;;;;;;29.80;43.13;100119.19;10341533;28;96994;-94
2023/07/06 14:51:37;;;;;;;3.85;2.50;;;;;;;30.22;42.82;100114.81;10339675;28;96602;-90
2023/07/06 14:56:58;;;;;;;7.00;3.30;;;;;;;30.42;42.56;100111.50;10339263;28;96834;-88
2023/07/06 15:02:02;;;;;;;;;;;;;;;29.82;41.60;100122.56;10367190;28;96646;-93
2023/07/06 15:07:06;;;;;;;3.58;2.30;;;;;;;30.28;42.39;100119.47;10384891;28;96631;-88
2023/07/06 15:12:10;;;;;;;3.00;2.10;;;;;;;29.93;41.59;100114.81;10383167;28;96970;-94
2023/07/06 15:17:32;;;;;;;4.10;2.33;;;;;;;29.77;41.80;100119.56;10375099;28;96873;-93
2023/07/06 15:22:36;;;;;;;2.55;1.80;;;;;;;30.06;41.69;100109.56;10380135;28;96566;-93
2023/07/06 15:27:43;;;;;;;2.83;2.15;;;;;;;29.85;41.73;100119.50;10386298;22;96830;-89
2023/07/06 15:32:51;;;;;;;3.35;1.73;;;;;;;29.58;41.02;100114.69;10381586;28;96632;-91
2023/07/06 15:37:54;;;;;;;3.35;2.28;;;;;;;29.54;41.68;100116.94;10423606;28;96800;-95
2023/07/06 15:42:57;;;;;;;3.33;1.70;;;;;;;29.92;41.10;100113.13;10407616;28;96821;-95
2023/07/06 15:48:02;;;;;;;;;;;;;;;29.46;41.60;100110.72;10383554;28;96912;-93
2023/07/06 15:53:08;;;;;;;4.35;1.95;;;;;;;29.34;41.41;100110.34;10380077;28;97004;-93
2023/07/06 15:58:12;;;;;;;2.05;1.60;;;;;;;29.16;41.74;100104.38;10357930;28;96528;-92
2023/07/06 16:03:37;;;;;;;2.67;1.55;;;;;;;29.14;41.62;100106.44;10333171;28;96623;-90
2023/07/06 16:08:41;;;;;;;3.35;1.92;;;;;;;29.13;41.50;100105.63;10375142;28;96905;-94
2023/07/06 16:14:01;;;;;;;4.20;1.77;;;;;;;28.82;41.71;100102.13;10420493;28;96792;-93
2023/07/06 16:19:20;;;;;;;2.10;1.70;;;;;;;28.63;42.03;100105.28;10406331;28;97588;-88
2023/07/06 16:24:24;;;;;;;2.70;1.90;;;;;;;28.35;42.09;100100.53;10379371;28;97320;-91
2023/07/06 16:29:44;;;;;;;3.10;1.52;;;;;;;28.43;42.71;100095.09;10382024;28;97660;-93
2023/07/06 16:34:49;;;;;;;2.63;1.17;;;;;;;28.23;41.78;100086.53;10386356;28;96907;-94
2023/07/06 16:40:10;;;;;;;2.80;1.63;;;;;;;28.39;42.02;100097.31;10381351;28;96698;-91
2023/07/06 16:45:15;;;;;;;2.63;1.40;;;;;;;28.12;42.19;100084.22;10386993;28;96629;-93
2023/07/06 16:50:23;;;;;;;3.17;1.88;;;;;;;27.92;42.72;100091.94;10388074;28;96679;-89
2023/07/06 16:55:28;;;;;;;2.90;1.45;;;;;;;27.95;42.48;100086.16;10386528;28;97848;-92
2023/07/06 17:00:33;;;;;;;2.33;1.30;;;;;;;27.75;42.76;100092.16;10388542;28;97136;-89
2023/07/06 17:05:41;;;;;;;2.05;1.50;;;;;;;27.80;42.10;100078.97;10387617;28;96732;-90
2023/07/06 17:10:46;;;;;;;3.25;1.42;;;;;;;27.67;42.18;100081.34;10387332;28;97623;-91
2023/07/06 17:15:52;;;;;;;1.98;1.33;;;;;;;27.81;42.38;100072.53;10395901;28;96826;-92
2023/07/06 17:21:08;;;;;;;2.63;1.30;;;;;;;27.75;42.40;100074.06;10400143;28;97363;-93
2023/07/06 17:26:13;;;;;;;2.15;1.38;;;;;;;27.90;41.86;100077.75;10386690;28;96540;-92
2023/07/06 17:31:19;;;;;;;2.30;1.42;;;;;;;27.78;42.12;100081.84;10388180;28;96804;-95
2023/07/06 17:36:26;;;;;;;2.35;1.20;;;;;;;27.80;41.97;100085.22;10426950;28;96761;-93
2023/07/06 17:41:31;;;;;;;1.60;1.20;;;;;;;27.61;42.24;100082.03;10428436;27;96639;-93
2023/07/06 17:46:39;;;;;;;1.90;1.00;;;;;;;27.39;41.79;100093.56;10427074;27;96717;-94
2023/07/06 17:51:46;;;;;;;1.85;1.38;;;;;;;27.38;42.14;100089.16;10428705;28;96670;-92
2023/07/06 17:56:51;;;;;;;1.92;1.15;;;;;;;27.08;42.14;100098.00;10429999;27;96687;-96
2023/07/06 18:01:56;;;;;;;2.15;1.00;;;;;;;27.15;42.44;100088.22;10430796;28;97286;-92
2023/07/06 18:07:03;;;;;;;1.13;0.82;;;;;;;26.86;42.41;100103.03;10413672;28;97162;-95
2023/07/06 18:12:08;;;;;;;1.50;1.05;;;;;;;26.76;42.36;100107.75;10388349;28;96725;-91
2023/07/06 18:17:11;;;;;;;2.13;1.45;;;;;;;26.62;42.40;100110.25;10386046;28;96825;-93
2023/07/06 18:22:33;;;;;;;2.17;1.25;;;;;;;26.45;42.69;100112.06;10381641;28;96719;-93
2023/07/06 18:27:37;;;;;;;2.05;1.20;;;;;;;26.41;43.16;100118.81;10385566;28;97053;-88
2023/07/06 18:32:40;;;;;;;2.13;1.00;;;;;;;26.45;42.84;100122.88;10389406;28;96681;-95
2023/07/06 18:38:02;;;;;;;2.10;0.98;;;;;;;26.33;43.35;100124.16;10382876;28;97105;-91
2023/07/06 18:43:05;;;;;;;3.28;1.30;;;;;;;26.19;43.47;100105.88;10388267;28;97571;-92
2023/07/06 18:48:08;;;;;;;1.83;1.20;;;;;;;26.02;44.12;100122.16;10384342;28;96931;-93
2023/07/06 18:53:13;;;;;;;1.98;1.15;;;;;;;26.03;44.04;100129.25;10387326;28;97326;-95
2023/07/06 18:58:16;;;;;;;3.20;1.33;;;;;;;25.86;44.36;100131.03;10379436;28;97245;-91
2023/07/06 19:03:19;;;;;;;2.60;1.07;;;;;;;25.76;44.34;100117.66;10387100;28;96629;-91
2023/07/06 19:08:24;;;;;;;2.30;1.13;;;;;;;25.64;44.65;100115.38;10385803;28;96580;-92
2023/07/06 19:13:45;;;;;;;2.80;1.20;;;;;;;25.53;44.78;100111.09;10381544;28;96886;-93
2023/07/06 19:18:49;;;;;;;2.08;1.23;;;;;;;25.39;45.50;100113.50;10353553;28;96663;-89
2023/07/06 19:23:54;;;;;;;1.47;0.83;;;;;;;25.18;45.75;100111.19;10383342;28;96740;-89
2023/07/06 19:28:57;;;;;;;1.70;1.10;;;;;;;25.13;45.84;100118.03;10392236;28;97586;-95
2023/07/06 19:34:00;;;;;;;2.10;1.30;;;;;;;24.97;45.46;100118.72;10385923;28;97513;-91
2023/07/06 19:39:05;;;;;;;2.27;1.17;;;;;;;25.01;46.08;100124.66;10385743;28;96654;-94
2023/07/06 19:44:09;;;;;;;1.48;1.08;;;;;;;24.78;46.04;100133.19;10387023;28;96730;-94
2023/07/06 19:49:13;;;;;;;1.63;1.02;;;;;;;24.76;46.57;100128.94;10388861;28;96797;-89
2023/07/06 19:54:36;;;;;;;2.13;1.30;;;;;;;24.65;47.02;100135.41;10386594;28;97025;-96
2023/07/06 19:59:42;;;;;;;2.00;1.33;;;;;;;24.46;47.71;100137.41;10388313;28;96721;-92
2023/07/06 20:04:49;;;;;;;2.35;1.33;;;;;;;24.38;48.21;100135.44;10385145;28;96713;-88
2023/07/06 20:10:01;;;;;;;2.78;1.20;;;;;;;24.23;49.10;100141.44;10429613;28;96585;-90
2023/07/06 20:15:08;;;;;;;2.08;1.20;;;;;;;24.23;48.79;100142.31;10430988;27;96775;-92
2023/07/06 20:20:13;;;;;;;1.98;1.20;;;;;;;24.05;49.20;100149.47;10408772;28;96812;-94
2023/07/06 20:25:37;;;;;;;1.77;1.13;;;;;;;23.99;49.23;100150.06;10417044;28;96772;-92
2023/07/06 20:30:43;;;;;;;1.50;1.20;;;;;;;23.87;49.44;100153.09;10424285;28;96756;-88
2023/07/06 20:35:51;;;;;;;2.58;1.20;;;;;;;23.54;50.22;100159.84;10425036;28;96738;-94
2023/07/06 20:41:00;;;;;;;1.52;0.95;;;;;;;23.48;50.43;100169.28;10403568;28;96617;-90
2023/07/06 20:46:04;;;;;;;1.23;0.90;;;;;;;23.39;50.41;100172.81;10382915;28;96640;-94
2023/07/06 20:51:09;;;;;;;2.00;1.23;;;;;;;23.46;50.58;100187.38;10387628;28;96802;-96
2023/07/06 20:56:18;;;;;;;2.53;1.20;;;;;;;23.38;51.02;100189.09;10385430;28;96824;-87
2023/07/06 21:01:40;;;;;;;0.98;0.73;;;;;;;23.34;51.02;100199.25;10381770;28;96623;-94
2023/07/06 21:06:45;;;;;;;1.85;1.27;;;;;;;23.36;51.21;100194.59;10388710;28;96704;-93
2023/07/06 21:12:10;;;;;;;3.10;1.33;;;;;;;23.47;51.53;100199.84;10374155;28;96628;-90
2023/07/06 21:17:14;;;;;;;1.90;1.20;;;;;;;23.38;51.80;100216.81;10379148;28;96697;-88
2023/07/06 21:22:36;;;;;;;1.77;1.08;;;;;;;23.39;51.66;100220.34;10380657;28;96898;-92
2023/07/06 21:27:43;;;;;;;1.27;0.90;;;;;;;23.35;51.64;100225.16;10389084;28;96763;-92
2023/07/06 21:32:47;;;;;;;1.60;0.98;;;;;;;23.26;51.93;100212.56;10415886;28;96863;-92
2023/07/06 21:37:52;;;;;;;1.77;1.15;;;;;;;23.16;52.57;100226.97;10432209;28;96598;-92
2023/07/06 21:42:59;;;;;;;2.10;1.08;;;;;;;23.01;53.19;100223.03;10429520;27;96568;-92
2023/07/06 21:48:04;;;;;;;2.08;1.10;;;;;;;22.88;53.59;100228.66;10423034;28;97429;-91
2023/07/06 21:53:08;;;;;;;;;;;;;;;22.83;53.73;100219.31;10425478;28;96857;-93
2023/07/06 21:58:32;;;;;;;1.48;0.98;;;;;;;22.78;53.58;100217.06;10406177;28;96822;-91
2023/07/06 22:03:36;;;;;;;1.70;1.05;;;;;;;22.69;53.93;100215.16;10385654;28;96863;-91
2023/07/06 22:08:42;;;;;;;1.92;0.90;;;;;;;22.53;54.17;100222.88;10426026;28;97453;-92
2023/07/06 22:13:48;;;;;;;0.90;0.77;;;;;;;22.52;54.43;100219.34;10425748;28;96585;-90
2023/07/06 22:18:53;;;;;;;1.75;1.08;;;;;;;22.32;54.55;100219.44;10425084;28;96874;-94
2023/07/06 22:23:57;;;;;;;;;;;;;;;22.34;54.99;100207.59;10421861;27;97033;-92
2023/07/06 22:29:04;;;;;;;2.03;0.88;;;;;;;22.34;54.29;100207.59;10421301;27;97554;-93
2023/07/06 22:34:09;;;;;;;1.80;1.00;;;;;;;22.17;54.53;100208.25;10421491;28;97140;-93
2023/07/06 22:39:13;;;;;;;;;;;;;;;21.91;55.95;100212.31;10407931;28;96706;-90
2023/07/06 22:44:37;;;;;;;1.10;0.80;;;;;;;21.86;55.33;100208.31;10379417;28;96795;-89
2023/07/06 22:49:41;;;;;;;1.42;1.00;;;;;;;21.80;55.57;100204.34;10377408;28;96695;-95
2023/07/06 22:54:46;;;;;;;1.20;0.77;;;;;;;21.80;55.45;100206.16;10378324;28;97018;-91
2023/07/06 23:00:11;;;;;;;2.17;1.13;;;;;;;21.72;55.74;100201.50;10378786;28;97178;-93
2023/07/06 23:05:17;;;;;;;1.90;1.25;;;;;;;21.76;55.56;100200.22;10383823;28;96592;-91
2023/07/06 23:10:22;;;;;;;2.33;0.93;;;;;;;21.86;55.31;100194.94;10379760;28;96779;-91
2023/07/06 23:15:46;;;;;;;2.38;1.02;;;;;;;21.87;54.80;100192.13;10375813;28;97481;-92
2023/07/06 23:20:52;;;;;;;1.58;0.95;;;;;;;21.81;55.19;100192.66;10384745;28;97076;-91
2023/07/06 23:25:56;;;;;;;;;;;;;;;21.85;55.58;100194.06;10383590;28;96817;-91
2023/07/06 23:31:02;;;;;;;2.25;1.23;;;;;;;21.22;56.66;100189.75;10383330;28;96734;-91
2023/07/06 23:36:10;;;;;;;1.67;1.08;;;;;;;21.13;57.15;100193.16;10383501;28;96672;-90
2023/07/06 23:41:14;;;;;;;2.30;1.20;;;;;;;21.19;56.97;100189.16;10377058;28;97505;-91
2023/07/06 23:46:22;;;;;;;0.82;0.80;;;;;;;21.03;57.22;100186.03;10377283;28;96726;-90
2023/07/06 23:51:46;;;;;;;1.90;0.90;;;;;;;20.87;57.64;100183.78;10378660;28;96651;-91